Terminal Aerodrome Forecast
Issued by NWS

Home | Current Version | Previous Version | Text Only | Print | Product List | Glossary Off
Versions: 1 2 3 4 5 6 7 8 9 10 11 12 13 14 15 16 17 18

000
FTUS43 KTOP 200500
TAFFOE
TAF
KFOE 200520Z 2006/2106 19010KT 4SM BR FEW008 BKN250
      TEMPO 2009/2012 2SM BR FEW008 BKN250
     FM201300 23012KT P6SM SCT040
     FM202200 27008KT P6SM VCTS BKN040CB
     FM210200 32006KT P6SM BKN050=

USA.gov is the U.S. government's official web portal to all federal, state and local government web resources and services.